LELC

San Javier Airport

San Javier, Spain
TAF LELC 181100Z 1812/1912 VRB03KT 9999 SCT035 TX23/1814Z TN14/1906Z PROB40 TEMPO 1818/1824 23012KT 4000 SHRA SCT030CB BKN040
Issued Valid From Valid To
Oct-18 @ 11:00 UTC
(an hour ago)
Oct-18 @ 12:00 UTC
(24 minutes ago)
Oct-19 @ 12:00 UTC
(in 24 hours)
Oct-18 @ 12:00 to Oct-19 @ 12:00
TAF LELC 181100Z 1812/1912 VRB03KT 9999 SCT035 TX23/1814Z TN14/1906Z
Wind Visibility Clouds
Variable at 3 knots 10,000+ meters
  • Scattered at 3,500' AGL
Temporary  (Probability 40%) Oct-18 @ 18:00 to Oct-19 @ 00:00
PROB40 TEMPO 1818/1824 23012KT 4000 SHRA SCT030CB BKN040
Wind Visibility Clouds Conditions
230° at 12 knots 4,007 meters
  • Scattered at 3,000' AGL
  • Broken at 4,000' AGL
  • Rain
TAF LELC 181100Z 1812/1912 VRB03KT 9999 SCT035 TX23/1814Z TN14/1906Z PROB40 TEMPO 1818/1824 23012KT 4000 SHRA SCT030CB BKN040
Issued Oct-18 @ 11:00 UTC
(an hour ago)
Valid From Oct-18 @ 12:00 UTC
(24 minutes ago)
Valid To Oct-19 @ 12:00 UTC
(in 24 hours)
Oct-18 @ 12:00 - Oct-19 @ 12:00
Wind Visibility
Variable at 3 knots 10,000+ meters
Clouds
  • Scattered at 3,500' AGL
Probability 40% Temporary Oct-18 @ 18:00 - Oct-19 @ 00:00
Wind Visibility
230° at 12 knots 4,007 meters
Clouds
  • Scattered at 3,000' AGL
  • Broken at 4,000' AGL
Conditions
  • Rain